Time;durP1;ratioP1;P1;durP2;ratioP2;P2;SDS_P1;SDS_P2;PMS_P1;PMS_P2;Temp;Humidity;BMP_temperature;BMP_pressure;BME280_temperature;BME280_humidity;BME280_pressure;Samples;Min_cycle;Max_cycle;Signal;HPM_P1;HPM_P2
2022/04/07 00:01:57;;;;;;;1.63;1.52;;;9.40;99.90;;;;;;5052042;28;20204;-69
2022/04/07 00:04:24;;;;;;;2.17;1.98;;;9.40;99.90;;;;;;5052509;28;20228;-68
2022/04/07 00:06:50;;;;;;;2.38;1.63;;;9.50;99.90;;;;;;5051814;28;20232;-68
2022/04/07 00:09:17;;;;;;;1.80;1.70;;;9.50;99.90;;;;;;5052558;28;20201;-68
2022/04/07 00:11:45;;;;;;;2.00;1.80;;;9.50;99.90;;;;;;5052261;28;20201;-69
2022/04/07 00:14:12;;;;;;;2.50;1.80;;;9.50;99.90;;;;;;5052492;28;20283;-69
2022/04/07 00:16:38;;;;;;;2.10;1.58;;;9.40;99.90;;;;;;5052124;28;20217;-67
2022/04/07 00:19:06;;;;;;;2.33;1.40;;;9.40;99.90;;;;;;5051982;28;20587;-69
2022/04/07 00:21:38;;;;;;;1.75;1.63;;;9.40;99.90;;;;;;5052431;28;20225;-68
2022/04/07 00:24:06;;;;;;;1.80;1.70;;;9.30;99.90;;;;;;5052121;28;20258;-68
2022/04/07 00:26:34;;;;;;;1.70;1.60;;;9.30;99.90;;;;;;5052162;28;20225;-68
2022/04/07 00:29:02;;;;;;;1.50;1.40;;;9.30;99.90;;;;;;5051856;28;20560;-68
2022/04/07 00:31:38;;;;;;;1.70;1.50;;;9.30;99.90;;;;;;5052174;28;20573;-69
2022/04/07 00:34:05;;;;;;;1.52;1.42;;;9.20;99.90;;;;;;5052222;28;20212;-68
2022/04/07 00:36:32;;;;;;;1.50;1.40;;;9.20;99.90;;;;;;5051917;28;20228;-69
2022/04/07 00:38:59;;;;;;;1.80;1.60;;;9.30;99.90;;;;;;5051666;28;20629;-69
2022/04/07 00:41:25;;;;;;;1.58;1.48;;;9.20;99.90;;;;;;5051821;28;20263;-69
2022/04/07 00:43:52;;;;;;;1.58;1.48;;;9.20;99.90;;;;;;5051775;28;20208;-69
2022/04/07 00:46:21;;;;;;;1.55;1.40;;;9.20;99.90;;;;;;5051530;28;20229;-69
2022/04/07 00:48:47;;;;;;;2.85;1.73;;;9.20;99.90;;;;;;5051419;28;20197;-69
2022/04/07 00:51:14;;;;;;;1.55;1.45;;;9.20;99.90;;;;;;5051849;28;20206;-69
2022/04/07 00:53:41;;;;;;;1.48;1.30;;;9.20;99.90;;;;;;5051667;28;20209;-67
2022/04/07 00:56:09;;;;;;;1.80;1.70;;;9.10;99.90;;;;;;5051532;28;20248;-69
2022/04/07 00:58:36;;;;;;;1.60;1.50;;;9.20;99.90;;;;;;5050860;28;20989;-69
2022/04/07 01:01:03;;;;;;;2.78;1.60;;;9.20;99.90;;;;;;5051692;28;20229;-69
2022/04/07 01:03:31;;;;;;;1.98;1.60;;;9.20;99.90;;;;;;5051377;28;20209;-68
2022/04/07 01:05:59;;;;;;;1.50;1.40;;;9.20;99.90;;;;;;5051478;28;20248;-68
2022/04/07 01:08:26;;;;;;;1.90;1.30;;;9.20;99.90;;;;;;5050822;28;20205;-69
2022/04/07 01:10:53;;;;;;;2.55;1.67;;;9.10;99.90;;;;;;5051207;28;20208;-68
2022/04/07 01:13:20;;;;;;;1.75;1.52;;;9.00;99.90;;;;;;5051040;28;20197;-69
2022/04/07 01:15:46;;;;;;;1.70;1.60;;;9.00;99.90;;;;;;5051079;28;20220;-69
2022/04/07 01:18:14;;;;;;;1.98;1.65;;;8.90;99.90;;;;;;5050417;28;20220;-69
2022/04/07 01:20:42;;;;;;;1.70;1.60;;;8.90;99.90;;;;;;5050973;28;20229;-69
2022/04/07 01:23:09;;;;;;;1.52;1.42;;;8.90;99.90;;;;;;5050957;28;20212;-69
2022/04/07 01:25:38;;;;;;;1.63;1.52;;;8.90;99.90;;;;;;5051037;28;20233;-69
2022/04/07 01:28:05;;;;;;;2.10;1.90;;;8.80;99.90;;;;;;5050308;28;20197;-69
2022/04/07 01:30:32;;;;;;;1.80;1.70;;;8.80;99.90;;;;;;5050992;28;20205;-69
2022/04/07 01:33:01;;;;;;;2.53;1.83;;;8.80;99.90;;;;;;5050708;28;20558;-69
2022/04/07 01:35:29;;;;;;;1.92;1.55;;;8.80;99.90;;;;;;5050621;28;20212;-68
2022/04/07 01:37:58;;;;;;;2.20;2.00;;;8.80;99.90;;;;;;5050176;28;20209;-69
2022/04/07 01:40:29;;;;;;;3.75;1.85;;;8.80;99.90;;;;;;5050661;28;20319;-68
2022/04/07 01:42:58;;;;;;;2.10;1.90;;;8.80;99.90;;;;;;5050946;28;20216;-69
2022/04/07 01:45:26;;;;;;;1.60;1.50;;;8.80;99.90;;;;;;5050312;28;20205;-67
2022/04/07 01:47:54;;;;;;;1.73;1.63;;;8.80;99.90;;;;;;5050115;28;20308;-69
2022/04/07 01:50:24;;;;;;;1.63;1.50;;;8.80;99.90;;;;;;5050516;28;20224;-69
2022/04/07 01:52:51;;;;;;;2.05;1.85;;;8.80;99.90;;;;;;5050709;28;20197;-69
2022/04/07 01:55:18;;;;;;;1.80;1.50;;;8.80;99.90;;;;;;5050151;28;20212;-68
2022/04/07 01:57:45;;;;;;;2.55;2.35;;;8.80;99.90;;;;;;5050058;28;20197;-68
2022/04/07 02:00:14;;;;;;;1.80;1.70;;;8.80;99.90;;;;;;5050326;28;20221;-68
2022/04/07 02:02:42;;;;;;;2.78;1.30;;;8.70;99.90;;;;;;5050338;28;20205;-68
2022/04/07 02:05:11;;;;;;;1.60;1.50;;;8.70;99.90;;;;;;5050238;28;20292;-68
2022/04/07 02:07:40;;;;;;;1.95;1.75;;;8.60;99.90;;;;;;5049793;28;20209;-69
2022/04/07 02:10:08;;;;;;;1.98;1.65;;;8.60;99.90;;;;;;5050514;28;20212;-69
2022/04/07 02:12:37;;;;;;;2.10;1.73;;;8.60;99.90;;;;;;5050385;28;20205;-69
2022/04/07 02:15:05;;;;;;;2.30;2.00;;;8.50;99.90;;;;;;5050343;28;20204;-68
2022/04/07 02:17:34;;;;;;;1.63;1.52;;;8.50;99.90;;;;;;5049771;28;20632;-69
2022/04/07 02:20:02;;;;;;;1.75;1.65;;;8.40;99.90;;;;;;5050356;28;20224;-69
2022/04/07 02:22:29;;;;;;;1.42;1.33;;;8.40;99.90;;;;;;5050463;28;20203;-69
2022/04/07 02:24:57;;;;;;;3.72;1.60;;;8.40;99.90;;;;;;5049841;28;20209;-68
2022/04/07 02:27:24;;;;;;;1.17;1.08;;;8.40;99.90;;;;;;5049582;28;20671;-68
2022/04/07 02:29:51;;;;;;;1.50;1.40;;;8.40;99.90;;;;;;5050259;28;20193;-68
2022/04/07 02:32:18;;;;;;;1.45;1.35;;;8.40;99.90;;;;;;5050241;28;20205;-69
2022/04/07 02:34:46;;;;;;;1.60;1.50;;;8.40;99.90;;;;;;5050369;28;20649;-69
2022/04/07 02:37:12;;;;;;;1.88;1.40;;;8.40;99.90;;;;;;5049619;28;20229;-69
2022/04/07 02:39:39;;;;;;;1.40;1.30;;;8.30;99.90;;;;;;5050190;28;20217;-69
2022/04/07 02:42:06;;;;;;;2.10;1.40;;;8.30;99.90;;;;;;5050220;28;20223;-69
2022/04/07 02:44:33;;;;;;;1.73;1.48;;;8.30;99.90;;;;;;5050573;28;20209;-69
2022/04/07 02:46:59;;;;;;;1.65;1.50;;;8.30;99.90;;;;;;5049597;28;20221;-68
2022/04/07 02:49:26;;;;;;;1.20;1.10;;;8.30;99.90;;;;;;5050059;28;20201;-68
2022/04/07 02:51:54;;;;;;;1.40;1.30;;;8.30;99.90;;;;;;5050039;28;20201;-69
2022/04/07 02:54:21;;;;;;;1.90;1.27;;;8.40;99.90;;;;;;5050076;28;20578;-68
2022/04/07 02:56:48;;;;;;;1.20;1.00;;;8.40;99.90;;;;;;5049317;28;20221;-68
2022/04/07 02:59:14;;;;;;;2.28;1.30;;;8.40;99.90;;;;;;5049799;28;20700;-68
2022/04/07 03:01:42;;;;;;;1.30;1.10;;;8.40;99.90;;;;;;5049952;28;20208;-68
2022/04/07 03:04:08;;;;;;;1.50;1.10;;;8.50;99.90;;;;;;5050022;28;20284;-67
2022/04/07 03:06:35;;;;;;;1.50;1.30;;;8.50;99.90;;;;;;5049653;28;20221;-68
2022/04/07 03:09:03;;;;;;;1.58;1.00;;;8.40;99.90;;;;;;5049629;28;20205;-68
2022/04/07 03:11:30;;;;;;;1.25;1.15;;;8.40;99.90;;;;;;5049962;28;20653;-68
2022/04/07 03:13:57;;;;;;;2.22;1.50;;;8.50;99.90;;;;;;5049948;28;20212;-68
2022/04/07 03:16:24;;;;;;;1.50;1.30;;;8.50;99.90;;;;;;5049447;28;20712;-68
2022/04/07 03:18:50;;;;;;;1.10;1.00;;;8.50;99.90;;;;;;5049258;28;20197;-68
2022/04/07 03:21:17;;;;;;;2.08;1.15;;;8.50;99.90;;;;;;5049729;28;20217;-68
2022/04/07 03:23:44;;;;;;;1.50;1.10;;;8.50;99.90;;;;;;5049964;28;20209;-68
2022/04/07 03:26:12;;;;;;;1.75;1.10;;;8.50;99.90;;;;;;5049342;28;20229;-67
2022/04/07 03:28:38;;;;;;;1.42;1.33;;;8.50;99.90;;;;;;5049293;28;20204;-67
2022/04/07 03:31:05;;;;;;;1.35;1.13;;;8.50;99.90;;;;;;5049636;28;20197;-69
2022/04/07 03:33:34;;;;;;;1.27;1.17;;;8.50;99.90;;;;;;5049962;28;20209;-70
2022/04/07 03:36:00;;;;;;;1.45;1.33;;;8.50;99.90;;;;;;5051266;28;20217;-68
2022/04/07 03:38:27;;;;;;;4.70;1.05;;;8.50;99.90;;;;;;5052144;28;20217;-67
2022/04/07 03:40:54;;;;;;;1.27;0.90;;;8.50;99.90;;;;;;5045041;28;20217;-68
2022/04/07 03:43:22;;;;;;;1.35;1.25;;;8.50;99.90;;;;;;5044026;28;20209;-68
2022/04/07 03:45:49;;;;;;;1.55;1.23;;;8.60;99.90;;;;;;5042530;28;20268;-69
2022/04/07 03:48:15;;;;;;;1.20;1.10;;;8.60;99.90;;;;;;5041216;28;20197;-68
2022/04/07 03:50:42;;;;;;;1.70;1.40;;;8.50;99.90;;;;;;5042859;28;20653;-68
2022/04/07 03:53:09;;;;;;;2.38;1.23;;;8.50;99.90;;;;;;5041081;28;20198;-68
2022/04/07 03:55:36;;;;;;;1.10;1.00;;;8.50;99.90;;;;;;5048047;28;20214;-68
2022/04/07 03:58:03;;;;;;;1.50;1.20;;;8.50;99.90;;;;;;5042807;28;20880;-67
2022/04/07 04:00:31;;;;;;;1.80;1.38;;;8.50;99.90;;;;;;5050000;28;20659;-67
2022/04/07 04:02:58;;;;;;;1.30;1.20;;;8.50;99.90;;;;;;5051838;28;20201;-68
2022/04/07 04:05:25;;;;;;;1.40;1.23;;;8.50;99.90;;;;;;5050806;28;20628;-68
2022/04/07 04:07:51;;;;;;;1.73;1.13;;;8.50;99.90;;;;;;5049625;28;20201;-68
2022/04/07 04:10:18;;;;;;;3.65;1.73;;;8.50;99.90;;;;;;5050022;28;20193;-67
2022/04/07 04:12:45;;;;;;;1.80;1.20;;;8.50;99.90;;;;;;5042710;28;20201;-69
2022/04/07 04:15:12;;;;;;;1.20;1.10;;;8.60;99.90;;;;;;5041700;28;20197;-68
2022/04/07 04:17:40;;;;;;;1.13;1.02;;;8.50;99.90;;;;;;5040799;28;20200;-67
2022/04/07 04:20:08;;;;;;;3.70;1.30;;;8.50;99.90;;;;;;5041373;28;20214;-68
2022/04/07 04:22:34;;;;;;;1.73;1.27;;;8.60;99.90;;;;;;5041807;28;20704;-68
2022/04/07 04:25:01;;;;;;;1.90;1.40;;;8.60;99.90;;;;;;5044734;28;20533;-69
2022/04/07 04:27:28;;;;;;;1.52;1.40;;;8.60;99.90;;;;;;5050433;28;20491;-67
2022/04/07 04:29:55;;;;;;;1.45;1.15;;;8.60;99.90;;;;;;5052261;28;20201;-67
2022/04/07 04:32:21;;;;;;;1.35;1.20;;;8.60;99.90;;;;;;5052406;28;20208;-68
2022/04/07 04:34:49;;;;;;;2.83;1.50;;;8.60;99.90;;;;;;5052190;28;20201;-67
2022/04/07 04:37:16;;;;;;;1.63;1.27;;;8.60;99.90;;;;;;5051142;28;20712;-68
2022/04/07 04:39:43;;;;;;;1.40;1.30;;;8.70;99.90;;;;;;5052107;28;20201;-69
2022/04/07 04:42:10;;;;;;;5.10;1.30;;;8.70;99.90;;;;;;5051892;28;20221;-68
2022/04/07 04:44:37;;;;;;;1.30;1.15;;;8.70;99.90;;;;;;5051873;28;20201;-68
2022/04/07 04:47:04;;;;;;;1.40;1.30;;;8.70;99.90;;;;;;5051028;28;20231;-68
2022/04/07 04:49:31;;;;;;;1.50;1.40;;;8.70;99.90;;;;;;5051669;28;20197;-68
2022/04/07 04:51:59;;;;;;;2.10;1.20;;;8.70;99.90;;;;;;5052385;28;20198;-68
2022/04/07 04:54:25;;;;;;;1.38;1.00;;;8.70;99.90;;;;;;5051602;28;20693;-68
2022/04/07 04:56:52;;;;;;;1.73;1.25;;;8.70;99.90;;;;;;5051201;28;20248;-68
2022/04/07 04:59:19;;;;;;;1.20;1.10;;;8.80;99.90;;;;;;5051501;28;20205;-67
2022/04/07 05:01:45;;;;;;;1.65;1.25;;;8.80;99.90;;;;;;5051803;28;20221;-67
2022/04/07 05:04:12;;;;;;;1.40;1.00;;;8.80;99.90;;;;;;5051881;28;20216;-67
2022/04/07 05:06:39;;;;;;;2.75;1.10;;;8.80;99.90;;;;;;5051153;28;20235;-67
2022/04/07 05:09:06;;;;;;;1.80;1.40;;;8.80;99.90;;;;;;5051513;28;20208;-68
2022/04/07 05:11:33;;;;;;;1.40;1.30;;;8.80;99.90;;;;;;5051817;28;20262;-68
2022/04/07 05:14:00;;;;;;;1.10;1.00;;;8.80;99.90;;;;;;5051296;28;20209;-67
2022/04/07 05:16:27;;;;;;;0.93;0.82;;;8.80;99.90;;;;;;5051381;28;20225;-68
2022/04/07 05:18:54;;;;;;;1.10;1.00;;;8.80;99.90;;;;;;5050706;28;20205;-67
2022/04/07 05:21:21;;;;;;;1.10;1.00;;;8.80;99.90;;;;;;5051293;28;20232;-68
2022/04/07 05:27:12;;;;;;;0.90;0.80;;;8.80;99.90;;;;;;5076761;22;20766;-74
2022/04/07 05:29:38;;;;;;;1.70;1.02;;;8.80;99.90;;;;;;5073526;28;20203;-72
2022/04/07 05:32:07;;;;;;;2.03;1.00;;;8.80;99.90;;;;;;5072309;28;20200;-72
2022/04/07 05:34:34;;;;;;;1.10;1.00;;;8.80;99.90;;;;;;5073758;28;20201;-72
2022/04/07 05:37:01;;;;;;;1.10;0.90;;;8.80;99.90;;;;;;5057920;28;20483;-73
2022/04/07 05:39:29;;;;;;;1.75;0.90;;;8.80;99.90;;;;;;5051080;28;20220;-73
2022/04/07 05:41:56;;;;;;;1.50;0.77;;;8.90;99.90;;;;;;5051201;28;20228;-72
2022/04/07 05:44:23;;;;;;;1.10;1.00;;;8.90;99.90;;;;;;5051120;28;20212;-72
2022/04/07 05:46:51;;;;;;;1.00;0.90;;;8.90;99.90;;;;;;5050662;28;20799;-72
2022/04/07 05:49:18;;;;;;;1.10;0.90;;;8.90;99.90;;;;;;5051104;28;20250;-72
2022/04/07 05:51:45;;;;;;;1.55;0.90;;;8.90;99.90;;;;;;5051640;28;20554;-70
2022/04/07 05:54:16;;;;;;;1.70;0.90;;;9.00;99.90;;;;;;5051657;28;20205;-73
2022/04/07 05:56:44;;;;;;;1.15;0.95;;;9.00;99.90;;;;;;5051799;28;20252;-72
2022/04/07 05:59:10;;;;;;;1.60;0.82;;;9.10;99.90;;;;;;5050367;28;20212;-71
2022/04/07 06:01:37;;;;;;;1.02;0.80;;;9.10;99.90;;;;;;5051092;28;20263;-72
2022/04/07 06:04:04;;;;;;;1.95;1.00;;;9.30;99.90;;;;;;5050831;28;20581;-72
2022/04/07 06:06:30;;;;;;;2.10;1.00;;;9.40;99.90;;;;;;5050926;28;20589;-72
2022/04/07 06:08:57;;;;;;;0.90;0.70;;;9.50;99.90;;;;;;5050423;28;20208;-73
2022/04/07 06:11:24;;;;;;;1.20;0.93;;;9.60;99.90;;;;;;5050689;28;20553;-71
2022/04/07 06:13:52;;;;;;;1.13;0.90;;;9.60;99.90;;;;;;5051050;28;20205;-71
2022/04/07 06:16:19;;;;;;;1.02;0.80;;;9.70;99.90;;;;;;5050854;28;20743;-70
2022/04/07 06:18:45;;;;;;;0.90;0.80;;;9.70;99.90;;;;;;5050507;28;20197;-72
2022/04/07 06:21:12;;;;;;;1.00;0.90;;;9.70;99.90;;;;;;5050470;28;20231;-72
2022/04/07 06:23:39;;;;;;;1.58;0.80;;;9.70;99.90;;;;;;5050904;28;20660;-71
2022/04/07 06:26:06;;;;;;;1.00;0.90;;;9.80;99.90;;;;;;5049190;28;20692;-72
2022/04/07 06:28:33;;;;;;;1.05;0.73;;;9.80;99.90;;;;;;5040062;28;20711;-71
2022/04/07 06:31:01;;;;;;;1.33;1.02;;;9.80;99.90;;;;;;5047632;28;20231;-72
2022/04/07 06:33:28;;;;;;;1.05;0.80;;;9.90;99.90;;;;;;5050544;28;20205;-72
2022/04/07 06:35:55;;;;;;;1.00;0.90;;;9.80;99.90;;;;;;5050518;28;20220;-72
2022/04/07 06:38:21;;;;;;;1.00;0.80;;;9.80;99.90;;;;;;5049845;28;20220;-71
2022/04/07 06:40:48;;;;;;;0.90;0.70;;;9.80;99.90;;;;;;5050369;28;20692;-72
2022/04/07 06:43:15;;;;;;;1.42;0.88;;;9.90;99.90;;;;;;5050334;28;20205;-72
2022/04/07 06:45:43;;;;;;;1.00;0.90;;;9.90;99.90;;;;;;5050795;28;20601;-72
2022/04/07 06:48:12;;;;;;;1.05;0.95;;;9.90;99.90;;;;;;5050244;28;20205;-72
2022/04/07 06:50:39;;;;;;;0.90;0.75;;;10.00;99.90;;;;;;5051034;28;20668;-73
2022/04/07 06:53:06;;;;;;;0.90;0.80;;;10.00;99.90;;;;;;5050860;28;20223;-73
2022/04/07 06:55:33;;;;;;;1.90;0.90;;;10.00;99.90;;;;;;5050237;28;20240;-70
2022/04/07 06:58:01;;;;;;;0.90;0.80;;;10.00;99.90;;;;;;5049915;28;20208;-72
2022/04/07 07:00:31;;;;;;;0.80;0.70;;;10.00;99.90;;;;;;5050210;28;20217;-72
2022/04/07 07:02:59;;;;;;;1.00;0.80;;;10.00;99.90;;;;;;5050454;28;20664;-72
2022/04/07 07:05:29;;;;;;;0.90;0.75;;;10.00;99.90;;;;;;5049927;28;20228;-73
2022/04/07 07:07:56;;;;;;;1.73;0.88;;;10.00;99.90;;;;;;5049984;28;20210;-72
2022/04/07 07:10:24;;;;;;;1.33;0.90;;;10.10;99.90;;;;;;5056565;28;20208;-72
2022/04/07 07:12:52;;;;;;;1.08;0.77;;;10.10;99.90;;;;;;5054172;28;20299;-72
2022/04/07 07:15:21;;;;;;;1.70;0.80;;;10.20;99.90;;;;;;5053973;28;20213;-72
2022/04/07 07:17:47;;;;;;;1.00;0.70;;;10.20;99.90;;;;;;5053679;28;20205;-72
2022/04/07 07:20:14;;;;;;;1.20;0.95;;;10.30;99.90;;;;;;5054152;28;20680;-73
2022/04/07 07:22:43;;;;;;;3.25;0.95;;;10.50;99.90;;;;;;5053659;28;20229;-72
2022/04/07 07:25:12;;;;;;;1.08;0.80;;;10.60;99.90;;;;;;5053587;28;20212;-72
2022/04/07 07:27:39;;;;;;;1.40;0.73;;;10.80;99.90;;;;;;5053531;28;20201;-72
2022/04/07 07:30:09;;;;;;;1.33;1.15;;;10.80;99.90;;;;;;5048746;28;20205;-72
2022/04/07 07:32:36;;;;;;;1.10;0.80;;;10.90;99.90;;;;;;5051619;28;20656;-71
2022/04/07 07:35:02;;;;;;;1.10;0.80;;;10.80;99.90;;;;;;5052160;28;20664;-73
2022/04/07 07:37:29;;;;;;;4.20;1.65;;;11.00;99.90;;;;;;5050873;28;20228;-72
2022/04/07 07:39:57;;;;;;;2.85;1.10;;;11.20;99.90;;;;;;5051994;28;20197;-73
2022/04/07 07:42:24;;;;;;;0.90;0.75;;;11.40;99.90;;;;;;5051621;28;20263;-72
2022/04/07 07:44:51;;;;;;;1.23;1.00;;;11.50;99.90;;;;;;5051289;28;20275;-73
2022/04/07 07:47:18;;;;;;;1.10;0.75;;;11.50;99.90;;;;;;5050840;28;20232;-73
2022/04/07 07:49:45;;;;;;;1.80;1.23;;;11.60;99.90;;;;;;5051932;28;20609;-73
2022/04/07 07:52:11;;;;;;;1.30;1.00;;;11.70;99.90;;;;;;5050963;28;20208;-72
2022/04/07 07:54:38;;;;;;;0.90;0.70;;;11.50;99.90;;;;;;5051701;28;20205;-73
2022/04/07 07:57:06;;;;;;;1.10;0.80;;;11.40;99.90;;;;;;5050391;28;20232;-73
2022/04/07 07:59:33;;;;;;;1.33;0.95;;;11.30;99.90;;;;;;5051280;28;20216;-71
2022/04/07 08:02:00;;;;;;;0.90;0.80;;;11.30;99.90;;;;;;5052417;28;20722;-71
2022/04/07 08:04:28;;;;;;;1.65;0.90;;;11.20;99.90;;;;;;5056325;28;20587;-71
2022/04/07 08:06:54;;;;;;;1.90;1.00;;;11.10;99.90;;;;;;5051948;28;20412;-71
2022/04/07 08:09:21;;;;;;;1.52;0.90;;;11.00;99.90;;;;;;5051257;28;20209;-72
2022/04/07 08:11:48;;;;;;;0.90;0.80;;;11.10;99.90;;;;;;5052437;28;20284;-71
2022/04/07 08:14:17;;;;;;;3.50;1.25;;;11.20;99.90;;;;;;5055062;28;20205;-71
2022/04/07 08:16:43;;;;;;;1.13;0.85;;;11.30;99.90;;;;;;5059164;28;20221;-71
2022/04/07 08:19:10;;;;;;;1.88;0.90;;;11.40;99.90;;;;;;5055834;28;20204;-70
2022/04/07 08:21:37;;;;;;;1.65;0.85;;;11.60;99.90;;;;;;5052826;28;20217;-70
2022/04/07 08:24:05;;;;;;;1.65;1.08;;;11.60;99.90;;;;;;5054722;28;20208;-71
2022/04/07 08:26:32;;;;;;;1.48;0.80;;;11.70;99.90;;;;;;5053305;28;20237;-71
2022/04/07 08:28:59;;;;;;;2.53;1.50;;;11.80;99.90;;;;;;5053598;28;20304;-71
2022/04/07 08:31:28;;;;;;;1.10;0.80;;;11.90;99.90;;;;;;5053011;28;20251;-71
2022/04/07 08:33:55;;;;;;;1.30;1.10;;;12.00;99.90;;;;;;5051255;28;20207;-72
2022/04/07 08:36:21;;;;;;;1.85;1.00;;;12.20;99.90;;;;;;5051945;28;20224;-70
2022/04/07 08:38:48;;;;;;;1.20;0.90;;;12.20;99.90;;;;;;5051803;28;20258;-72
2022/04/07 08:41:15;;;;;;;1.00;0.75;;;12.10;99.90;;;;;;5051049;28;20208;-74
2022/04/07 08:43:43;;;;;;;0.90;0.70;;;12.10;99.90;;;;;;5051154;28;20676;-73
2022/04/07 08:46:13;;;;;;;1.10;0.90;;;12.10;99.90;;;;;;5050356;28;20252;-72
2022/04/07 08:48:42;;;;;;;1.80;0.90;;;12.20;99.90;;;;;;5050601;28;20200;-73
2022/04/07 08:51:10;;;;;;;1.02;0.80;;;12.50;99.90;;;;;;5050144;28;20252;-72
2022/04/07 08:53:38;;;;;;;0.90;0.70;;;12.70;99.90;;;;;;5050801;28;20628;-72
2022/04/07 08:56:07;;;;;;;1.10;0.80;;;13.20;99.90;;;;;;5049852;28;20586;-72
2022/04/07 08:58:34;;;;;;;0.90;0.80;;;14.00;99.90;;;;;;5048936;28;20460;-72
2022/04/07 09:01:01;;;;;;;2.07;0.93;;;14.10;99.90;;;;;;5050000;28;20459;-73
2022/04/07 09:03:28;;;;;;;1.07;0.80;;;14.00;99.40;;;;;;5050234;28;20969;-72
2022/04/07 09:05:58;;;;;;;1.05;0.75;;;13.50;99.60;;;;;;5049932;28;20505;-72
2022/04/07 09:08:32;;;;;;;0.90;0.80;;;13.20;99.90;;;;;;5049086;28;20228;-72
2022/04/07 09:11:00;;;;;;;0.80;0.70;;;13.00;99.90;;;;;;5050102;28;20474;-72
2022/04/07 09:13:31;;;;;;;1.00;0.77;;;12.70;99.90;;;;;;5049714;28;20611;-72
2022/04/07 09:16:00;;;;;;;0.80;0.80;;;12.50;99.90;;;;;;5049962;28;20221;-72
2022/04/07 09:18:27;;;;;;;1.20;0.70;;;12.40;99.90;;;;;;5049505;28;20229;-72
2022/04/07 09:20:55;;;;;;;0.80;0.70;;;12.40;99.90;;;;;;5048067;28;20300;-72
2022/04/07 09:23:22;;;;;;;0.90;0.70;;;12.30;99.90;;;;;;5049950;28;20228;-72
2022/04/07 09:25:50;;;;;;;2.58;0.88;;;12.30;99.90;;;;;;5049518;28;20240;-73
2022/04/07 09:28:30;;;;;;;0.90;0.77;;;12.20;99.90;;;;;;5049863;28;20201;-72
2022/04/07 09:30:58;;;;;;;1.10;0.80;;;12.10;99.90;;;;;;5050429;28;20227;-72
2022/04/07 09:33:26;;;;;;;5.95;0.93;;;12.10;99.90;;;;;;5049016;28;20254;-71
2022/04/07 09:36:02;;;;;;;1.50;1.00;;;12.00;99.90;;;;;;5050554;28;20225;-73
2022/04/07 09:38:31;;;;;;;1.00;0.80;;;11.90;99.90;;;;;;5050005;28;20549;-71
2022/04/07 09:41:04;;;;;;;1.40;0.88;;;11.90;99.90;;;;;;5050428;28;20243;-71
2022/04/07 09:43:31;;;;;;;6.78;1.00;;;11.90;99.90;;;;;;5050919;28;20330;-71
2022/04/07 09:45:57;;;;;;;1.63;0.80;;;11.80;99.90;;;;;;5051358;28;20229;-73
2022/04/07 09:48:27;;;;;;;1.40;0.88;;;11.60;99.90;;;;;;5050615;28;20636;-72
2022/04/07 09:51:06;;;;;;;0.90;0.77;;;11.60;99.90;;;;;;5051547;28;20672;-73
2022/04/07 09:53:37;;;;;;;1.85;1.00;;;11.60;99.90;;;;;;5037120;28;20296;-72
2022/04/07 09:56:04;;;;;;;0.90;0.80;;;11.60;99.90;;;;;;5049733;28;20217;-73
2022/04/07 09:58:32;;;;;;;3.90;1.00;;;11.70;99.90;;;;;;5049616;28;20223;-72
2022/04/07 10:01:02;;;;;;;1.00;0.80;;;11.90;99.90;;;;;;5049009;28;20497;-71
2022/04/07 10:03:30;;;;;;;1.50;0.73;;;12.00;99.90;;;;;;5048147;28;20221;-71
2022/04/07 10:05:58;;;;;;;0.90;0.70;;;12.10;99.90;;;;;;5048085;28;20229;-71
2022/04/07 10:08:27;;;;;;;3.03;1.40;;;12.20;99.90;;;;;;5049161;28;20235;-71
2022/04/07 10:10:55;;;;;;;1.25;1.00;;;12.20;99.90;;;;;;5049024;28;20409;-71
2022/04/07 10:13:22;;;;;;;1.10;0.90;;;12.20;99.90;;;;;;5048805;28;20890;-71
2022/04/07 10:15:51;;;;;;;4.10;0.80;;;12.30;99.90;;;;;;5049046;28;20225;-71
2022/04/07 10:18:24;;;;;;;0.90;0.80;;;12.30;99.90;;;;;;5027689;28;20213;-71
2022/04/07 10:20:57;;;;;;;0.90;0.80;;;12.30;99.90;;;;;;5028846;28;20202;-72
2022/04/07 10:23:37;;;;;;;0.90;0.75;;;12.30;99.90;;;;;;5028743;28;20230;-72
2022/04/07 10:26:07;;;;;;;1.00;0.80;;;12.40;99.90;;;;;;5028155;28;20233;-72
2022/04/07 10:28:35;;;;;;;1.33;0.80;;;12.50;99.90;;;;;;5027488;28;20206;-72
2022/04/07 10:31:14;;;;;;;0.90;0.70;;;12.60;99.90;;;;;;5029351;28;20535;-72
2022/04/07 10:33:44;;;;;;;3.85;0.90;;;12.50;99.90;;;;;;5028920;28;20571;-72
2022/04/07 10:36:16;;;;;;;2.50;0.80;;;12.50;99.90;;;;;;5028297;28;20804;-73
2022/04/07 10:38:46;;;;;;;3.00;0.80;;;12.50;99.90;;;;;;5028612;28;20216;-73
2022/04/07 10:41:40;;;;;;;1.92;0.85;;;12.50;99.90;;;;;;5027330;28;20304;-72
2022/04/07 10:44:09;;;;;;;1.02;0.80;;;12.40;99.90;;;;;;5029281;28;20209;-71
2022/04/07 10:46:36;;;;;;;0.90;0.70;;;12.40;99.90;;;;;;5032520;28;20218;-71
2022/04/07 10:49:07;;;;;;;0.80;0.60;;;12.40;99.90;;;;;;5032093;28;20217;-70
2022/04/07 10:51:45;;;;;;;1.02;0.70;;;12.40;99.90;;;;;;5033560;28;20202;-72
2022/04/07 10:54:14;;;;;;;1.20;0.82;;;12.50;99.90;;;;;;5033011;28;20393;-72
2022/04/07 10:56:48;;;;;;;0.90;0.80;;;12.50;99.90;;;;;;5031925;28;20225;-70
2022/04/07 10:59:20;;;;;;;2.75;0.90;;;12.60;99.90;;;;;;5033002;28;20220;-72
2022/04/07 11:01:52;;;;;;;2.35;0.82;;;12.60;99.90;;;;;;5032640;28;20255;-75
2022/04/07 11:04:40;;;;;;;0.95;0.80;;;12.50;99.90;;;;;;5032323;28;20210;-73
2022/04/07 11:07:18;;;;;;;1.00;0.70;;;12.60;99.90;;;;;;5032333;28;20267;-73
2022/04/07 11:09:53;;;;;;;0.90;0.75;;;12.70;99.90;;;;;;5032715;28;20730;-72
2022/04/07 11:12:25;;;;;;;0.98;0.77;;;12.70;99.90;;;;;;5032254;28;20203;-73
2022/04/07 11:14:54;;;;;;;0.88;0.68;;;12.70;99.90;;;;;;5032931;28;20660;-73
2022/04/07 11:17:29;;;;;;;0.90;0.70;;;12.60;99.90;;;;;;5035192;28;20284;-72
2022/04/07 11:20:05;;;;;;;0.90;0.73;;;12.70;99.90;;;;;;5051935;28;20691;-73
2022/04/07 11:22:52;;;;;;;1.00;0.80;;;12.80;99.90;;;;;;5054779;28;20228;-72
2022/04/07 11:25:26;;;;;;;0.80;0.70;;;13.10;99.90;;;;;;5051941;28;20228;-72
2022/04/07 11:28:11;;;;;;;1.65;0.80;;;13.40;99.90;;;;;;5051194;28;20205;-73
2022/04/07 11:30:46;;;;;;;0.80;0.70;;;13.50;99.90;;;;;;5051811;28;20534;-72
2022/04/07 11:33:28;;;;;;;0.90;0.75;;;13.40;99.90;;;;;;5052068;28;20642;-73
2022/04/07 11:36:37;;;;;;;1.27;0.80;;;13.40;99.90;;;;;;5052116;28;20320;-72
2022/04/07 11:39:04;;;;;;;1.10;0.80;;;13.40;99.90;;;;;;5052372;28;20460;-71
2022/04/07 11:41:41;;;;;;;1.10;1.00;;;13.40;99.90;;;;;;5052234;28;20209;-72
2022/04/07 11:44:10;;;;;;;0.80;0.60;;;13.40;99.90;;;;;;5052532;28;20228;-72
2022/04/07 11:46:37;;;;;;;0.80;0.70;;;13.20;99.90;;;;;;5053946;28;20229;-71
2022/04/07 11:49:05;;;;;;;1.20;0.70;;;13.20;99.90;;;;;;5052601;28;20730;-72
2022/04/07 11:51:35;;;;;;;0.90;0.70;;;13.20;99.90;;;;;;5052463;28;20551;-72
2022/04/07 11:54:03;;;;;;;2.08;0.80;;;13.20;99.90;;;;;;5051036;28;20256;-72
2022/04/07 11:56:32;;;;;;;1.92;0.82;;;13.00;99.90;;;;;;5050244;28;20225;-72
2022/04/07 11:59:02;;;;;;;1.85;0.88;;;12.80;99.90;;;;;;5051936;28;20201;-72
2022/04/07 12:01:29;;;;;;;0.93;0.82;;;12.80;99.90;;;;;;5051292;28;20211;-70
2022/04/07 12:03:57;;;;;;;1.52;0.80;;;12.70;99.90;;;;;;5051751;28;20275;-71
2022/04/07 12:06:25;;;;;;;0.80;0.70;;;12.70;99.90;;;;;;5050509;28;20224;-71
2022/04/07 12:08:51;;;;;;;0.80;0.60;;;12.60;99.90;;;;;;5051651;28;20201;-72
2022/04/07 12:11:19;;;;;;;0.90;0.70;;;12.60;99.90;;;;;;5050836;28;20684;-71
2022/04/07 12:13:47;;;;;;;0.80;0.60;;;12.50;99.90;;;;;;5051724;28;20239;-72
2022/04/07 12:16:15;;;;;;;1.00;0.80;;;12.40;99.90;;;;;;5051107;28;20605;-72
2022/04/07 12:18:43;;;;;;;0.95;0.68;;;12.40;99.90;;;;;;5050039;28;20597;-72
2022/04/07 12:21:10;;;;;;;0.80;0.70;;;12.30;99.90;;;;;;5051067;28;20197;-72
2022/04/07 12:23:40;;;;;;;1.27;0.75;;;12.30;99.90;;;;;;5051044;28;20297;-71
2022/04/07 12:26:08;;;;;;;1.40;0.80;;;12.20;99.90;;;;;;5050842;28;20237;-71
2022/04/07 12:28:38;;;;;;;0.82;0.70;;;12.10;99.90;;;;;;5050787;28;20197;-72
2022/04/07 12:31:11;;;;;;;0.90;0.70;;;12.10;99.90;;;;;;5049961;28;20255;-72
2022/04/07 12:33:41;;;;;;;1.00;0.70;;;12.10;99.90;;;;;;5051387;28;20248;-72
2022/04/07 12:36:08;;;;;;;1.75;0.68;;;12.00;99.90;;;;;;5050243;28;20562;-71
2022/04/07 12:38:35;;;;;;;3.55;0.77;;;12.00;99.90;;;;;;5050776;28;20691;-72
2022/04/07 12:41:13;;;;;;;0.90;0.70;;;12.00;99.90;;;;;;5050307;28;20205;-72
2022/04/07 12:43:50;;;;;;;1.45;0.70;;;12.00;99.90;;;;;;5050423;28;20232;-72
2022/04/07 12:46:18;;;;;;;1.10;0.70;;;12.00;99.90;;;;;;5050325;28;20726;-71
2022/04/07 12:49:03;;;;;;;2.30;0.70;;;12.00;99.90;;;;;;5050670;28;20279;-73
2022/04/07 12:51:30;;;;;;;1.20;0.80;;;12.00;99.90;;;;;;5050789;28;20208;-72
2022/04/07 12:54:07;;;;;;;0.90;0.70;;;11.90;99.90;;;;;;5050630;28;20579;-72
2022/04/07 12:56:35;;;;;;;0.90;0.70;;;11.80;99.90;;;;;;5049371;28;20232;-72
2022/04/07 12:59:03;;;;;;;1.25;0.80;;;11.70;99.90;;;;;;5050511;28;20205;-72
2022/04/07 13:01:30;;;;;;;1.90;0.98;;;11.80;99.90;;;;;;5050577;28;20240;-71
2022/04/07 13:03:57;;;;;;;1.80;0.77;;;11.80;99.90;;;;;;5050714;28;20260;-72